createdAt,value
2022-09-12T00:03:28.368Z,89.19
2022-09-12T00:08:31.193Z,89.64
2022-09-12T00:13:37.320Z,89.87
2022-09-12T00:18:47.063Z,89.97
2022-09-12T00:23:50.912Z,90.21
2022-09-12T00:28:54.204Z,90.22
2022-09-12T00:34:00.851Z,90.46
2022-09-12T00:39:04.894Z,90.58
2022-09-12T00:44:10.670Z,90.61
2022-09-12T00:49:24.300Z,90.86
2022-09-12T00:54:32.928Z,91.49
2022-09-12T00:59:51.345Z,91.33
2022-09-12T01:04:54.395Z,91.33
2022-09-12T01:09:57.589Z,91.41
2022-09-12T01:15:01.006Z,91.39
2022-09-12T01:20:20.713Z,91.47
2022-09-12T01:25:50.396Z,91.62
2022-09-12T01:30:54.416Z,91.67
2022-09-12T01:36:13.841Z,91.86
2022-09-12T01:41:25.780Z,92.39
2022-09-12T01:46:44.028Z,92.04
2022-09-12T01:51:58.989Z,92.38
2022-09-12T01:57:08.958Z,92.47
2022-09-12T02:02:40.837Z,92.28
2022-09-12T02:07:49.648Z,92.23
2022-09-12T02:13:08.593Z,92.47
2022-09-12T02:18:18.766Z,92.75
2022-09-12T02:23:26.655Z,92.75
2022-09-12T02:28:40.638Z,93.15
2022-09-12T02:34:02.161Z,92.67
2022-09-12T02:39:05.136Z,92.82
2022-09-12T02:44:07.979Z,92.79
2022-09-12T02:49:11.067Z,92.62
2022-09-12T02:54:16.635Z,92.38
2022-09-12T02:59:23.628Z,92.46
2022-09-12T03:04:36.157Z,92.52
2022-09-12T03:10:03.762Z,92.41
2022-09-12T03:15:27.799Z,92.46
2022-09-12T03:20:50.988Z,92.39
2022-09-12T03:26:07.519Z,93.55
2022-09-12T03:31:15.800Z,94.31
2022-09-12T03:36:25.643Z,94.17
2022-09-12T03:41:29.442Z,93.22
2022-09-12T03:46:32.992Z,92.68
2022-09-12T03:51:36.106Z,92.06
2022-09-12T03:56:40.536Z,91.26
2022-09-12T04:01:43.232Z,91.33
2022-09-12T04:06:45.989Z,90.60
2022-09-12T04:11:48.717Z,90.26
2022-09-12T04:16:51.540Z,89.85
2022-09-12T04:21:54.377Z,89.63
2022-09-12T04:26:57.318Z,89.78
2022-09-12T04:32:00.082Z,89.47
2022-09-12T04:37:03.392Z,89.03
2022-09-12T04:42:06.374Z,88.94
2022-09-12T04:47:09.150Z,88.40
2022-09-12T04:52:11.922Z,88.17
2022-09-12T04:57:14.648Z,88.24
2022-09-12T05:02:18.260Z,87.81
2022-09-12T05:07:21.103Z,87.21
2022-09-12T05:12:24.016Z,86.49
2022-09-12T05:17:29.782Z,85.84
2022-09-12T05:22:34.620Z,85.38
2022-09-12T05:27:37.361Z,85.22
2022-09-12T05:32:40.091Z,85.00
2022-09-12T05:37:43.417Z,85.03
2022-09-12T05:42:46.248Z,84.27
2022-09-12T05:47:49.976Z,84.14
2022-09-12T05:52:52.766Z,83.61
2022-09-12T05:57:56.184Z,83.35
2022-09-12T06:03:01.496Z,82.99
2022-09-12T06:08:07.179Z,82.55
2022-09-12T06:13:09.990Z,82.63
2022-09-12T06:18:13.163Z,82.40
2022-09-12T06:23:16.044Z,82.07
2022-09-12T06:28:21.288Z,81.03
2022-09-12T06:33:24.174Z,80.14
2022-09-12T06:38:26.947Z,79.57
2022-09-12T06:43:29.807Z,79.55
2022-09-12T06:48:32.656Z,78.51
2022-09-12T06:53:40.635Z,77.61
2022-09-12T06:58:43.876Z,77.77
2022-09-12T07:03:55.927Z,77.12
2022-09-12T07:09:00.234Z,76.14
2022-09-12T07:14:06.370Z,74.12
2022-09-12T07:19:12.080Z,73.85
2022-09-12T07:24:15.019Z,72.43
2022-09-12T07:29:36.872Z,71.36
2022-09-12T07:34:40.956Z,70.24
2022-09-12T07:39:43.792Z,70.88
2022-09-12T07:44:49.101Z,67.94
2022-09-12T07:49:52.767Z,68.44
2022-09-12T07:54:56.793Z,68.41
2022-09-12T08:00:04.092Z,68.22
2022-09-12T08:05:07.643Z,67.79
2022-09-12T08:10:10.719Z,68.95
2022-09-12T08:15:15.487Z,68.51
2022-09-12T08:20:24.281Z,67.80
2022-09-12T08:25:29.619Z,67.63
2022-09-12T08:30:32.537Z,67.32
2022-09-12T08:35:39.762Z,67.04
2022-09-12T08:40:59.324Z,67.05
2022-09-12T08:46:09.165Z,66.82
2022-09-12T08:51:16.083Z,67.00
2022-09-12T08:56:19.456Z,67.18
2022-09-12T09:01:41.536Z,66.75
2022-09-12T09:07:01.343Z,66.78
2022-09-12T09:12:17.913Z,66.43
2022-09-12T09:17:33.954Z,67.33
2022-09-12T09:22:42.734Z,67.37
2022-09-12T09:28:13.765Z,66.08
2022-09-12T09:33:23.863Z,64.70
2022-09-12T09:38:48.623Z,62.18
2022-09-12T09:43:52.059Z,60.24
2022-09-12T09:49:02.807Z,59.73
2022-09-12T09:54:11.388Z,59.80
2022-09-12T09:59:27.983Z,59.26
2022-09-12T10:04:39.240Z,56.53
2022-09-12T10:10:08.136Z,56.72
2022-09-12T10:15:22.000Z,56.40
2022-09-12T10:20:44.349Z,56.99
2022-09-12T10:25:55.225Z,55.63
2022-09-12T10:31:03.370Z,55.54
2022-09-12T10:36:07.995Z,56.52
2022-09-12T10:41:12.402Z,57.12
2022-09-12T10:46:18.552Z,58.07
2022-09-12T10:51:24.439Z,58.56
2022-09-12T10:56:39.580Z,58.39
2022-09-12T11:01:46.073Z,57.96
2022-09-12T11:06:58.062Z,57.48
2022-09-12T11:12:14.583Z,57.35
2022-09-12T11:17:26.142Z,57.55
2022-09-12T11:22:46.734Z,57.95
2022-09-12T11:27:55.449Z,58.01
2022-09-12T11:33:26.640Z,58.56
2022-09-12T11:38:32.057Z,59.28
2022-09-12T11:43:43.903Z,58.96
2022-09-12T11:48:55.969Z,57.71
2022-09-12T11:54:35.786Z,57.95
2022-09-12T12:00:00.562Z,58.12
2022-09-12T12:05:23.796Z,58.32
2022-09-12T12:10:42.382Z,58.61
2022-09-12T12:15:50.610Z,58.79
2022-09-12T12:20:55.811Z,58.22
2022-09-12T12:26:05.438Z,57.63
2022-09-12T12:31:11.230Z,57.61
2022-09-12T12:36:39.276Z,58.66
2022-09-12T12:41:45.666Z,58.29
2022-09-12T12:47:19.988Z,58.75
2022-09-12T12:52:25.615Z,59.95
2022-09-12T12:57:41.774Z,59.60
2022-09-12T13:03:06.734Z,58.97
2022-09-12T13:08:19.978Z,56.92
2022-09-12T13:13:34.315Z,55.81
2022-09-12T13:19:08.737Z,57.55
2022-09-12T13:24:17.295Z,58.43
2022-09-12T13:29:28.336Z,58.52
2022-09-12T13:34:37.292Z,60.05
2022-09-12T13:39:41.140Z,60.29
2022-09-12T13:45:15.986Z,59.18
2022-09-12T13:50:23.931Z,57.29
2022-09-12T13:55:34.338Z,55.37
2022-09-12T14:00:37.998Z,55.15
2022-09-12T14:05:45.073Z,54.88
2022-09-12T14:10:50.538Z,54.79
2022-09-12T14:15:55.876Z,55.51
2022-09-12T14:21:12.855Z,56.30
2022-09-12T14:26:17.868Z,57.35
2022-09-12T14:31:24.801Z,57.88
2022-09-12T14:36:31.213Z,58.86
2022-09-12T14:41:36.224Z,58.58
2022-09-12T14:46:41.673Z,57.91
2022-09-12T14:51:51.710Z,58.09
2022-09-12T14:56:58.535Z,58.49
2022-09-12T15:02:22.407Z,59.23
2022-09-12T15:07:42.230Z,58.88
2022-09-12T15:12:45.205Z,58.71
2022-09-12T15:17:48.191Z,58.39
2022-09-12T15:22:52.342Z,58.49
2022-09-12T15:27:56.539Z,58.17
2022-09-12T15:33:00.199Z,58.53
2022-09-12T15:38:03.006Z,58.97
2022-09-12T15:43:06.225Z,59.69
2022-09-12T15:48:09.787Z,58.82
2022-09-12T15:53:17.156Z,59.19
2022-09-12T15:58:20.130Z,59.55
2022-09-12T16:03:26.531Z,60.30
2022-09-12T16:08:31.603Z,60.65
2022-09-12T16:13:34.389Z,60.71
2022-09-12T16:18:40.037Z,61.02
2022-09-12T16:23:47.222Z,61.91
2022-09-12T16:28:58.590Z,62.64
2022-09-12T16:34:01.325Z,63.17
2022-09-12T16:39:04.238Z,63.95
2022-09-12T16:44:08.172Z,64.75
2022-09-12T16:49:12.093Z,65.29
2022-09-12T16:54:15.804Z,65.86
2022-09-12T16:59:18.524Z,66.29
2022-09-12T17:04:23.558Z,66.87
2022-09-12T17:09:28.235Z,67.42
2022-09-12T17:14:31.474Z,67.89
2022-09-12T17:19:34.205Z,68.29
2022-09-12T17:24:36.980Z,68.88
2022-09-12T17:29:39.734Z,69.59
2022-09-12T17:34:42.588Z,70.17
2022-09-12T17:39:46.442Z,70.50
2022-09-12T17:44:49.816Z,71.12
2022-09-12T17:50:01.681Z,71.55
2022-09-12T17:55:13.543Z,72.03
2022-09-12T18:00:16.792Z,72.32
2022-09-12T18:05:19.560Z,72.98
2022-09-12T18:10:22.526Z,73.72
2022-09-12T18:15:27.113Z,74.37
2022-09-12T18:20:30.613Z,74.80
2022-09-12T18:25:33.429Z,75.66
2022-09-12T18:30:36.168Z,76.45
2022-09-12T18:35:39.119Z,76.69
2022-09-12T18:40:41.862Z,76.85
2022-09-12T18:45:44.629Z,77.05
2022-09-12T18:50:47.634Z,77.44
2022-09-12T18:55:50.590Z,77.77
2022-09-12T19:00:53.530Z,78.22
2022-09-12T19:05:56.985Z,78.47
2022-09-12T19:11:01.873Z,78.93
2022-09-12T19:16:06.698Z,79.28
2022-09-12T19:21:15.180Z,79.55
2022-09-12T19:26:20.531Z,79.69
2022-09-12T19:31:24.642Z,79.92
2022-09-12T19:36:44.245Z,80.35
2022-09-12T19:41:48.387Z,80.96
2022-09-12T19:46:51.247Z,80.90
2022-09-12T19:51:54.172Z,81.20
2022-09-12T19:56:56.991Z,81.43
2022-09-12T20:02:00.083Z,81.56
2022-09-12T20:07:02.953Z,81.75
2022-09-12T20:12:05.876Z,82.29
2022-09-12T20:17:08.961Z,82.49
2022-09-12T20:22:11.643Z,82.74
2022-09-12T20:27:15.301Z,82.82
2022-09-12T20:32:18.741Z,83.23
2022-09-12T20:37:21.510Z,83.36
2022-09-12T20:42:24.219Z,83.99
2022-09-12T20:47:27.001Z,84.45
2022-09-12T20:52:29.707Z,84.45
2022-09-12T20:57:32.464Z,85.03
2022-09-12T21:02:35.245Z,85.15
2022-09-12T21:07:38.109Z,85.01
2022-09-12T21:12:40.773Z,84.61
2022-09-12T21:17:43.851Z,85.31
2022-09-12T21:22:46.646Z,85.32
2022-09-12T21:27:49.407Z,85.78
2022-09-12T21:32:52.114Z,86.12
2022-09-12T21:37:54.832Z,86.07
2022-09-12T21:42:58.438Z,86.52
2022-09-12T21:48:01.628Z,86.51
2022-09-12T21:53:04.329Z,86.85
2022-09-12T21:58:07.060Z,87.17
2022-09-12T22:03:10.906Z,87.43
2022-09-12T22:08:13.640Z,87.36
2022-09-12T22:13:16.360Z,87.28
2022-09-12T22:18:19.549Z,87.69
2022-09-12T22:23:45.463Z,87.27
2022-09-12T22:28:49.267Z,87.36
2022-09-12T22:33:54.818Z,87.47
2022-09-12T22:38:57.849Z,87.59
2022-09-12T22:44:00.536Z,87.97
2022-09-12T22:49:04.879Z,87.88
2022-09-12T22:54:09.540Z,88.29
2022-09-12T22:59:12.244Z,88.24
2022-09-12T23:04:14.969Z,88.09
2022-09-12T23:09:18.097Z,87.93
2022-09-12T23:14:20.809Z,88.10
2022-09-12T23:19:23.577Z,88.08
2022-09-12T23:24:26.224Z,88.27
2022-09-12T23:29:28.892Z,88.65
2022-09-12T23:34:32.782Z,88.80
2022-09-12T23:39:35.517Z,88.61
2022-09-12T23:44:38.197Z,88.66
2022-09-12T23:49:41.015Z,88.79
2022-09-12T23:54:43.685Z,88.85
2022-09-12T23:59:46.413Z,88.40
